Time;durP1;ratioP1;P1;durP2;ratioP2;P2;SDS_P1;SDS_P2;PMS_P1;PMS_P2;Temp;Humidity;BMP_temperature;BMP_pressure;BME280_temperature;BME280_humidity;BME280_pressure;Samples;Min_cycle;Max_cycle;Signal;HPM_P1;HPM_P2
2023/12/02 00:00:31;;;;;;;5.43;1.48;;;20.80;61.70;;;;;;4991861;28;20580;-67
2023/12/02 00:02:58;;;;;;;9.57;3.88;;;20.70;61.70;;;;;;4998007;28;20059;-66
2023/12/02 00:05:24;;;;;;;14.32;2.35;;;20.70;61.70;;;;;;5007034;28;20182;-68
2023/12/02 00:07:51;;;;;;;14.32;2.13;;;20.70;62.40;;;;;;5000614;28;20069;-68
2023/12/02 00:10:18;;;;;;;27.92;8.77;;;20.60;63.20;;;;;;4993443;28;20513;-66
2023/12/02 00:12:44;;;;;;;9.00;2.35;;;20.50;63.90;;;;;;5001355;28;20131;-67
2023/12/02 00:15:11;;;;;;;17.55;3.13;;;20.40;63.50;;;;;;4996628;28;20062;-68
2023/12/02 00:17:37;;;;;;;14.82;2.25;;;20.40;63.90;;;;;;4998805;28;20208;-67
2023/12/02 00:20:04;;;;;;;44.92;18.50;;;20.30;64.90;;;;;;4992269;28;20139;-66
2023/12/02 00:22:31;;;;;;;22.90;12.60;;;20.20;64.60;;;;;;4997696;28;20048;-67
2023/12/02 00:24:57;;;;;;;31.35;11.93;;;20.20;66.00;;;;;;4992654;28;20147;-67
2023/12/02 00:27:24;;;;;;;12.27;5.25;;;20.10;65.80;;;;;;5006071;28;20044;-68
2023/12/02 00:29:50;;;;;;;15.25;4.00;;;20.00;66.10;;;;;;4992750;28;20127;-68
2023/12/02 00:32:17;;;;;;;11.73;3.42;;;19.90;66.00;;;;;;4996762;28;20137;-68
2023/12/02 00:34:43;;;;;;;32.10;11.70;;;19.90;67.60;;;;;;4996301;28;20472;-67
2023/12/02 00:37:10;;;;;;;15.15;2.67;;;19.80;67.40;;;;;;4999721;28;20107;-67
2023/12/02 00:39:36;;;;;;;18.77;2.85;;;19.70;69.00;;;;;;5003584;28;20132;-68
2023/12/02 00:42:03;;;;;;;22.05;3.17;;;19.60;70.20;;;;;;4998695;28;20123;-67
2023/12/02 00:44:29;;;;;;;21.63;4.07;;;19.60;70.70;;;;;;4989576;28;20048;-67
2023/12/02 00:46:56;;;;;;;14.23;3.40;;;19.50;72.20;;;;;;4997867;28;20074;-67
2023/12/02 00:49:22;;;;;;;21.83;4.22;;;19.40;71.80;;;;;;4991036;28;20069;-68
2023/12/02 00:51:49;;;;;;;16.60;4.15;;;19.30;71.80;;;;;;4986913;28;20056;-67
2023/12/02 00:54:15;;;;;;;20.05;4.38;;;19.20;71.70;;;;;;4992580;28;20150;-66
2023/12/02 00:56:41;;;;;;;25.23;4.50;;;19.10;73.00;;;;;;4989545;28;20122;-66
2023/12/02 00:59:08;;;;;;;25.63;4.93;;;19.00;72.40;;;;;;4992253;28;20054;-67
2023/12/02 01:01:34;;;;;;;25.35;4.38;;;19.00;72.40;;;;;;4997612;28;20522;-67
2023/12/02 01:04:01;;;;;;;18.13;3.83;;;19.00;73.00;;;;;;4992772;28;20052;-68
2023/12/02 01:06:28;;;;;;;33.47;4.53;;;18.90;73.20;;;;;;5009631;28;20110;-68
2023/12/02 01:08:54;;;;;;;18.75;5.22;;;18.80;72.60;;;;;;5002568;28;20066;-68
2023/12/02 01:11:21;;;;;;;18.60;5.25;;;18.80;73.70;;;;;;4998858;28;20548;-68
2023/12/02 01:13:47;;;;;;;15.98;4.93;;;18.70;73.80;;;;;;5000577;28;20067;-67
2023/12/02 01:16:14;;;;;;;21.42;6.05;;;18.70;74.80;;;;;;5001480;28;20055;-69
2023/12/02 01:18:40;;;;;;;24.77;6.30;;;18.60;75.80;;;;;;5005686;28;20096;-67
2023/12/02 01:21:07;;;;;;;25.48;5.72;;;18.60;76.90;;;;;;4998419;28;20102;-68
2023/12/02 01:23:33;;;;;;;20.25;6.28;;;18.50;77.00;;;;;;4995427;28;20101;-68
2023/12/02 01:26:00;;;;;;;29.20;6.75;;;18.50;76.60;;;;;;5002136;28;20437;-69
2023/12/02 01:28:26;;;;;;;33.58;6.25;;;18.30;76.40;;;;;;4994719;28;20076;-69
2023/12/02 01:30:52;;;;;;;32.90;6.90;;;18.30;77.80;;;;;;5002020;28;20053;-68
2023/12/02 01:33:19;;;;;;;33.35;6.70;;;18.30;76.70;;;;;;5000965;28;20055;-69
2023/12/02 01:35:45;;;;;;;29.58;6.38;;;18.20;76.70;;;;;;4996678;28;20512;-71
2023/12/02 01:38:12;;;;;;;34.38;6.45;;;18.10;78.30;;;;;;4994093;28;20427;-68
2023/12/02 01:40:38;;;;;;;36.95;6.68;;;18.10;78.90;;;;;;4998497;28;20072;-70
2023/12/02 01:43:05;;;;;;;47.08;7.18;;;18.10;79.10;;;;;;4993045;28;20043;-70
2023/12/02 01:45:31;;;;;;;44.15;7.55;;;18.00;79.50;;;;;;5003092;28;20170;-69
2023/12/02 01:48:00;;;;;;;43.63;7.40;;;17.90;81.00;;;;;;5002153;28;20074;-70
2023/12/02 01:50:28;;;;;;;42.22;7.55;;;17.90;80.50;;;;;;4998055;28;20055;-69
2023/12/02 01:52:55;;;;;;;49.15;8.50;;;17.80;80.20;;;;;;5000544;28;20057;-73
2023/12/02 01:55:21;;;;;;;42.17;9.25;;;17.70;80.20;;;;;;4993489;28;20078;-68
2023/12/02 01:57:48;;;;;;;58.15;8.73;;;17.70;80.20;;;;;;4992768;28;20054;-67
2023/12/02 02:00:14;;;;;;;44.63;8.23;;;17.60;80.90;;;;;;5001004;28;20058;-68
2023/12/02 02:02:41;;;;;;;40.45;7.55;;;17.60;80.60;;;;;;5007522;28;20101;-68
2023/12/02 02:05:08;;;;;;;31.88;7.13;;;17.50;80.60;;;;;;4994637;28;20092;-68
2023/12/02 02:07:34;;;;;;;44.22;7.50;;;17.50;80.50;;;;;;4995384;28;20542;-69
2023/12/02 02:10:01;;;;;;;33.05;7.20;;;17.40;81.30;;;;;;4998740;28;20093;-68
2023/12/02 02:12:27;;;;;;;34.47;7.88;;;17.40;82.10;;;;;;5002837;28;20164;-69
2023/12/02 02:14:54;;;;;;;40.83;8.25;;;17.40;82.50;;;;;;4992989;28;20064;-70
2023/12/02 02:17:20;;;;;;;55.70;9.23;;;17.30;82.70;;;;;;4992682;28;20061;-69
2023/12/02 02:19:47;;;;;;;56.22;9.90;;;17.20;83.40;;;;;;5006094;28;20082;-68
2023/12/02 02:22:13;;;;;;;54.92;10.13;;;17.20;84.40;;;;;;5001239;28;20104;-68
2023/12/02 02:24:40;;;;;;;54.85;10.50;;;17.20;85.50;;;;;;4992647;28;20084;-68
2023/12/02 02:27:06;;;;;;;68.55;10.23;;;17.10;84.60;;;;;;5007069;28;20094;-69
2023/12/02 02:29:33;;;;;;;66.78;10.65;;;17.10;85.30;;;;;;5001052;28;20086;-69
2023/12/02 02:31:59;;;;;;;55.00;12.10;;;17.00;85.70;;;;;;4998918;28;20082;-69
2023/12/02 02:34:26;;;;;;;51.47;11.57;;;17.00;85.80;;;;;;4996342;28;20080;-69
2023/12/02 02:36:52;;;;;;;69.20;11.90;;;16.90;87.70;;;;;;5006229;28;20051;-67
2023/12/02 02:39:19;;;;;;;52.20;11.25;;;16.80;87.90;;;;;;5001700;28;20058;-69
2023/12/02 02:41:46;;;;;;;52.88;10.85;;;16.80;87.90;;;;;;4992056;28;20137;-66
2023/12/02 02:44:12;;;;;;;56.40;13.25;;;16.70;87.90;;;;;;5002328;28;20454;-69
2023/12/02 02:46:39;;;;;;;69.65;16.77;;;16.70;87.80;;;;;;5006022;28;20524;-68
2023/12/02 02:49:05;;;;;;;62.55;15.85;;;16.70;86.70;;;;;;4999293;28;20416;-68
2023/12/02 02:51:32;;;;;;;53.05;13.48;;;16.60;87.00;;;;;;5001315;28;20060;-67
2023/12/02 02:53:59;;;;;;;44.22;10.65;;;16.60;87.70;;;;;;4994654;28;20094;-68
2023/12/02 02:56:25;;;;;;;36.40;10.18;;;16.50;88.50;;;;;;5006814;28;20101;-69
2023/12/02 02:58:51;;;;;;;38.70;9.27;;;16.50;89.50;;;;;;4989501;28;20057;-67
2023/12/02 03:01:18;;;;;;;51.78;10.43;;;16.40;89.50;;;;;;4992732;28;20056;-68
2023/12/02 03:03:44;;;;;;;61.65;13.43;;;16.30;89.90;;;;;;5002974;28;20472;-67
2023/12/02 03:06:12;;;;;;;48.42;12.20;;;16.30;90.10;;;;;;4995866;28;20520;-69
2023/12/02 03:08:38;;;;;;;46.25;11.60;;;16.30;90.50;;;;;;4998121;28;20380;-68
2023/12/02 03:11:05;;;;;;;48.45;12.13;;;16.20;90.90;;;;;;5000321;28;20551;-70
2023/12/02 03:13:31;;;;;;;44.13;12.80;;;16.20;91.10;;;;;;4996898;28;20080;-69
2023/12/02 03:15:58;;;;;;;46.78;11.27;;;16.10;91.20;;;;;;5007652;28;20167;-69
2023/12/02 03:18:24;;;;;;;55.38;11.40;;;16.10;91.50;;;;;;4998808;28;20054;-69
2023/12/02 03:20:51;;;;;;;40.28;10.18;;;16.00;91.50;;;;;;4993729;28;20261;-69
2023/12/02 03:23:17;;;;;;;55.10;11.73;;;16.00;91.60;;;;;;4999888;28;20110;-68
2023/12/02 03:25:44;;;;;;;47.90;11.63;;;16.00;91.90;;;;;;4994646;28;20060;-71
2023/12/02 03:28:10;;;;;;;58.95;11.85;;;16.00;91.80;;;;;;4995886;28;20153;-70
2023/12/02 03:30:38;;;;;;;57.65;11.70;;;16.00;92.40;;;;;;4999210;28;20054;-70
2023/12/02 03:33:04;;;;;;;46.03;11.48;;;15.90;92.00;;;;;;5004439;28;20056;-67
2023/12/02 03:35:30;;;;;;;55.50;10.48;;;15.90;92.10;;;;;;5002777;28;20063;-68
2023/12/02 03:37:57;;;;;;;49.78;10.35;;;15.90;92.20;;;;;;4995254;28;20119;-68
2023/12/02 03:40:23;;;;;;;47.83;11.20;;;15.80;92.10;;;;;;4991105;28;20454;-69
2023/12/02 03:42:50;;;;;;;68.43;12.70;;;15.80;92.40;;;;;;5001028;28;20503;-69
2023/12/02 03:45:16;;;;;;;67.00;12.57;;;15.80;92.50;;;;;;4996473;28;20059;-69
2023/12/02 03:47:43;;;;;;;62.83;12.50;;;15.70;92.50;;;;;;4999377;28;20044;-70
2023/12/02 03:50:10;;;;;;;58.97;12.63;;;15.70;92.70;;;;;;5001751;28;20062;-69
2023/12/02 03:52:36;;;;;;;54.85;12.50;;;15.70;93.00;;;;;;4997369;28;20052;-70
2023/12/02 03:55:03;;;;;;;50.85;13.20;;;15.60;93.30;;;;;;5001115;28;20073;-70
2023/12/02 03:57:31;;;;;;;56.30;15.18;;;15.60;93.10;;;;;;4990939;28;20116;-68
2023/12/02 03:59:58;;;;;;;70.15;18.13;;;15.60;94.00;;;;;;4993472;28;20087;-69
2023/12/02 04:02:26;;;;;;;66.15;18.83;;;15.60;93.30;;;;;;5006565;28;20062;-70
2023/12/02 04:04:52;;;;;;;69.13;17.40;;;15.50;93.60;;;;;;4997780;28;20171;-69
2023/12/02 04:07:19;;;;;;;65.20;15.57;;;15.50;93.70;;;;;;4994142;28;20563;-69
2023/12/02 04:09:46;;;;;;;81.15;20.42;;;15.50;93.90;;;;;;4992853;28;20077;-68
2023/12/02 04:12:12;;;;;;;81.43;24.63;;;15.40;93.90;;;;;;4995128;28;20141;-69
2023/12/02 04:14:39;;;;;;;74.88;23.50;;;15.40;94.00;;;;;;4991467;28;20062;-69
2023/12/02 04:17:05;;;;;;;91.38;26.17;;;15.40;94.30;;;;;;4998483;28;20108;-69
2023/12/02 04:19:32;;;;;;;89.05;26.38;;;15.40;94.10;;;;;;5002812;28;20092;-67
2023/12/02 04:21:59;;;;;;;86.97;26.48;;;15.40;94.10;;;;;;4996076;28;20094;-71
2023/12/02 04:24:25;;;;;;;94.68;29.80;;;15.30;94.30;;;;;;4990204;28;20122;-70
2023/12/02 04:26:52;;;;;;;103.50;34.58;;;15.30;94.20;;;;;;4997540;28;20514;-70
2023/12/02 04:29:18;;;;;;;100.10;33.47;;;15.30;94.30;;;;;;5001779;28;20105;-69
2023/12/02 04:31:45;;;;;;;99.90;33.50;;;15.30;94.30;;;;;;4996008;28;20063;-70
2023/12/02 04:34:11;;;;;;;99.18;32.10;;;15.30;94.30;;;;;;4993310;28;20102;-68
2023/12/02 04:36:37;;;;;;;94.60;32.70;;;15.30;94.80;;;;;;5007666;28;20054;-69
2023/12/02 04:39:04;;;;;;;95.20;33.50;;;15.20;94.90;;;;;;4995300;28;20066;-69
2023/12/02 04:41:31;;;;;;;88.82;31.83;;;15.20;95.10;;;;;;4995747;28;20095;-69
2023/12/02 04:43:58;;;;;;;106.80;32.13;;;15.20;95.30;;;;;;4995562;28;20054;-69
2023/12/02 04:46:24;;;;;;;113.22;30.80;;;15.10;95.10;;;;;;4997616;28;20151;-69
2023/12/02 04:48:51;;;;;;;93.07;31.10;;;15.10;95.20;;;;;;4982675;28;20085;-69
2023/12/02 04:51:17;;;;;;;101.13;34.05;;;15.00;95.50;;;;;;4996298;28;20071;-69
2023/12/02 04:53:44;;;;;;;91.60;29.92;;;15.00;95.80;;;;;;4997228;28;20520;-67
2023/12/02 04:56:11;;;;;;;114.97;32.22;;;15.00;95.80;;;;;;5005418;28;20472;-69
2023/12/02 04:58:38;;;;;;;110.72;31.63;;;15.00;96.20;;;;;;4994989;28;20069;-69
2023/12/02 05:01:04;;;;;;;108.22;32.58;;;15.00;96.30;;;;;;4996545;28;20182;-70
2023/12/02 05:03:31;;;;;;;127.28;32.60;;;14.90;96.20;;;;;;5001161;28;20479;-69
2023/12/02 05:05:57;;;;;;;118.20;33.00;;;14.80;96.50;;;;;;5003159;28;20068;-71
2023/12/02 05:08:24;;;;;;;117.80;33.63;;;14.80;96.60;;;;;;4997016;28;20107;-70
2023/12/02 05:10:51;;;;;;;110.85;33.63;;;14.90;96.90;;;;;;5004879;28;20096;-69
2023/12/02 05:13:17;;;;;;;123.97;34.53;;;14.80;96.90;;;;;;4996787;28;20061;-67
2023/12/02 05:15:44;;;;;;;119.85;36.67;;;14.80;96.90;;;;;;5005915;28;20134;-69
2023/12/02 05:18:11;;;;;;;128.93;38.30;;;14.80;97.00;;;;;;5002363;28;20060;-69
2023/12/02 05:20:38;;;;;;;134.55;36.40;;;14.70;97.00;;;;;;4999962;28;20069;-69
2023/12/02 05:23:05;;;;;;;116.53;36.25;;;14.80;97.00;;;;;;5000342;28;20124;-70
2023/12/02 05:25:31;;;;;;;131.70;36.72;;;14.70;97.00;;;;;;4996796;28;20499;-68
2023/12/02 05:27:57;;;;;;;118.57;36.95;;;14.70;97.10;;;;;;4995240;28;20560;-68
2023/12/02 05:30:24;;;;;;;131.90;36.92;;;14.70;97.20;;;;;;4993437;28;20070;-69
2023/12/02 05:32:51;;;;;;;116.80;35.80;;;14.60;97.20;;;;;;5000997;28;20072;-69
2023/12/02 05:35:18;;;;;;;123.50;36.38;;;14.60;97.70;;;;;;5004393;28;20062;-69
2023/12/02 05:37:45;;;;;;;145.60;37.67;;;14.60;97.60;;;;;;4996924;28;20069;-70
2023/12/02 05:40:12;;;;;;;126.55;37.35;;;14.60;97.80;;;;;;5007214;28;20121;-70
2023/12/02 05:42:38;;;;;;;135.48;38.10;;;14.50;97.90;;;;;;5001353;28;20067;-70
2023/12/02 05:45:06;;;;;;;114.28;37.85;;;14.50;97.90;;;;;;5002741;28;20065;-70
2023/12/02 05:47:32;;;;;;;122.82;39.08;;;14.40;98.20;;;;;;4999851;28;20426;-69
2023/12/02 05:49:58;;;;;;;;;;;14.40;98.40;;;;;;5009508;28;20086;-70
2023/12/02 05:52:25;;;;;;;123.28;39.50;;;14.40;98.60;;;;;;5002236;28;20314;-71
2023/12/02 05:54:51;;;;;;;;;;;14.40;98.00;;;;;;4995972;28;20090;-70
2023/12/02 05:57:17;;;;;;;134.32;43.28;;;14.40;97.90;;;;;;5000213;28;20376;-68
2023/12/02 05:59:44;;;;;;;122.75;41.08;;;14.40;98.10;;;;;;4997877;28;20069;-70
2023/12/02 06:02:10;;;;;;;144.98;44.47;;;14.40;98.40;;;;;;4995279;28;20489;-70
2023/12/02 06:04:37;;;;;;;136.45;45.78;;;14.30;98.60;;;;;;4995817;28;20176;-69
2023/12/02 06:07:03;;;;;;;132.48;47.28;;;14.30;98.80;;;;;;4998176;28;20117;-68
2023/12/02 06:09:30;;;;;;;142.90;47.03;;;14.30;98.80;;;;;;4995880;28;20092;-70
2023/12/02 06:11:56;;;;;;;144.88;46.65;;;14.30;99.00;;;;;;5005872;28;20092;-67
2023/12/02 06:14:23;;;;;;;151.45;46.47;;;14.20;99.20;;;;;;4993371;28;20061;-62
2023/12/02 06:16:49;;;;;;;153.50;47.25;;;14.40;99.70;;;;;;5001141;28;20111;-64
2023/12/02 06:19:19;;;;;;;167.55;52.80;;;14.50;99.40;;;;;;4997290;28;20462;-65
2023/12/02 06:21:46;;;;;;;173.23;56.60;;;14.60;99.50;;;;;;5001852;28;20562;-64
2023/12/02 06:24:12;;;;;;;150.30;59.40;;;14.70;98.90;;;;;;5003380;28;20170;-63
2023/12/02 06:26:39;;;;;;;180.98;64.88;;;14.80;98.60;;;;;;5000752;28;20086;-64
2023/12/02 06:29:06;;;;;;;198.23;67.18;;;14.80;98.60;;;;;;4994995;28;20167;-63
2023/12/02 06:31:33;;;;;;;174.45;56.92;;;14.80;97.90;;;;;;5000598;28;20565;-64
2023/12/02 06:34:00;;;;;;;173.90;57.67;;;14.70;97.40;;;;;;4992452;28;20127;-62
2023/12/02 06:36:26;;;;;;;168.82;53.50;;;14.70;98.20;;;;;;5007446;28;20065;-62
2023/12/02 06:38:53;;;;;;;139.40;52.15;;;14.80;97.80;;;;;;4997895;28;20084;-62
2023/12/02 06:41:19;;;;;;;151.27;51.97;;;14.80;97.90;;;;;;5000454;28;20514;-63
2023/12/02 06:43:46;;;;;;;171.95;59.03;;;14.80;98.00;;;;;;4995313;28;20129;-62
2023/12/02 06:46:23;;;;;;;187.00;74.03;;;14.80;97.70;;;;;;4994732;28;20154;-62
2023/12/02 06:48:50;;;;;;;133.60;49.63;;;14.80;98.20;;;;;;4990838;28;20080;-62
2023/12/02 06:51:17;;;;;;;138.80;48.97;;;14.70;98.10;;;;;;5002951;28;20065;-62
2023/12/02 06:53:43;;;;;;;166.98;49.40;;;14.70;98.00;;;;;;4991601;28;20509;-61
2023/12/02 06:56:21;;;;;;;137.02;51.35;;;14.70;98.20;;;;;;5003427;28;20528;-62
2023/12/02 06:58:48;;;;;;;152.65;52.13;;;14.70;97.90;;;;;;4998792;28;20078;-63
2023/12/02 07:01:26;;;;;;;165.20;53.60;;;14.60;98.00;;;;;;4997196;28;20377;-63
2023/12/02 07:03:56;;;;;;;161.85;52.10;;;14.60;98.40;;;;;;5001385;28;20071;-62
2023/12/02 07:06:23;;;;;;;152.95;53.13;;;14.50;98.30;;;;;;4999342;28;20065;-62
2023/12/02 07:08:51;;;;;;;157.80;65.13;;;14.60;98.40;;;;;;5006570;28;20074;-63
2023/12/02 07:11:18;;;;;;;167.10;52.55;;;14.50;98.40;;;;;;4996816;28;20151;-63
2023/12/02 07:13:45;;;;;;;160.00;51.25;;;14.50;99.10;;;;;;4991603;28;20067;-62
2023/12/02 07:16:11;;;;;;;143.75;50.30;;;14.50;98.70;;;;;;4994791;28;20093;-63
2023/12/02 07:18:39;;;;;;;184.32;54.25;;;14.50;98.80;;;;;;4992366;28;20080;-62
2023/12/02 07:21:07;;;;;;;143.90;52.00;;;14.40;98.80;;;;;;4999871;28;20070;-63
2023/12/02 07:23:34;;;;;;;182.30;54.33;;;14.40;98.80;;;;;;4997777;28;20144;-62
2023/12/02 07:26:01;;;;;;;173.15;55.00;;;14.40;98.80;;;;;;4994071;28;20540;-64
2023/12/02 07:28:27;;;;;;;136.68;53.28;;;14.30;98.80;;;;;;4999649;28;20092;-62
2023/12/02 07:30:55;;;;;;;147.93;54.05;;;14.30;98.50;;;;;;5006227;28;20117;-62
2023/12/02 07:33:22;;;;;;;156.32;52.42;;;14.30;98.70;;;;;;4994161;28;20074;-62
2023/12/02 07:35:48;;;;;;;156.60;52.70;;;14.30;98.50;;;;;;5008663;28;20069;-61
2023/12/02 07:38:15;;;;;;;156.02;50.53;;;14.30;98.90;;;;;;4992992;28;20071;-63
2023/12/02 07:40:42;;;;;;;178.80;54.80;;;14.30;99.00;;;;;;4999402;28;20069;-62
2023/12/02 07:43:09;;;;;;;153.52;50.95;;;14.30;98.90;;;;;;5000388;28;20104;-64
2023/12/02 07:45:36;;;;;;;151.63;52.22;;;14.30;98.50;;;;;;5000180;28;20071;-63
2023/12/02 07:48:02;;;;;;;131.90;46.90;;;14.30;98.90;;;;;;5005394;28;20204;-63
2023/12/02 07:50:29;;;;;;;129.65;44.85;;;14.30;98.50;;;;;;4994962;28;20162;-63
2023/12/02 07:52:55;;;;;;;137.88;42.78;;;14.20;97.90;;;;;;4990627;28;20063;-63
2023/12/02 07:55:21;;;;;;;;;;;14.30;97.50;;;;;;5000871;28;20099;-63
2023/12/02 07:57:48;;;;;;;125.88;44.58;;;14.20;97.50;;;;;;5000398;28;19952;-62
2023/12/02 08:00:15;;;;;;;116.30;41.13;;;14.20;98.10;;;;;;4994731;28;20577;-62
2023/12/02 08:02:41;;;;;;;120.60;40.15;;;14.10;97.90;;;;;;4998974;28;20069;-63
2023/12/02 08:05:08;;;;;;;114.70;38.13;;;14.10;98.20;;;;;;5000633;28;20365;-63
2023/12/02 08:07:34;;;;;;;97.72;38.88;;;14.00;98.20;;;;;;4996523;28;20440;-62
2023/12/02 08:10:01;;;;;;;110.10;38.70;;;14.00;98.50;;;;;;4991240;28;20524;-62
2023/12/02 08:12:27;;;;;;;99.25;36.33;;;13.90;98.30;;;;;;4998061;28;20122;-64
2023/12/02 08:14:53;;;;;;;97.43;36.08;;;13.90;98.10;;;;;;4989999;28;20543;-63
2023/12/02 08:17:19;;;;;;;;;;;13.90;98.20;;;;;;5003610;28;20186;-63
2023/12/02 08:19:46;;;;;;;106.70;35.28;;;13.80;98.30;;;;;;4997133;28;20434;-63
2023/12/02 08:22:12;;;;;;;108.20;36.83;;;13.80;98.50;;;;;;4993452;28;20599;-66
2023/12/02 08:24:42;;;;;;;;;;;13.70;98.20;;;;;;4988510;28;20074;-66
2023/12/02 08:27:12;;;;;;;118.57;44.63;;;13.70;98.20;;;;;;4989654;28;19959;-65
2023/12/02 08:29:39;;;;;;;108.60;44.97;;;13.60;98.40;;;;;;4988443;28;20140;-66
2023/12/02 08:32:06;;;;;;;110.32;42.80;;;13.60;98.80;;;;;;4986749;28;20096;-66
2023/12/02 08:34:32;;;;;;;115.22;46.08;;;13.60;99.00;;;;;;4988503;28;20197;-65
2023/12/02 08:36:59;;;;;;;140.00;46.55;;;13.50;98.80;;;;;;4987716;28;20506;-66
2023/12/02 08:39:26;;;;;;;137.30;48.92;;;13.50;99.10;;;;;;4989545;28;20557;-66
2023/12/02 08:41:52;;;;;;;140.25;48.67;;;13.50;99.20;;;;;;4988359;28;20086;-65
2023/12/02 08:44:19;;;;;;;134.02;52.10;;;13.40;98.80;;;;;;4987163;28;20083;-65
2023/12/02 08:46:45;;;;;;;123.43;48.13;;;13.30;98.90;;;;;;4988697;28;20085;-66
2023/12/02 08:49:12;;;;;;;137.68;49.22;;;13.30;99.60;;;;;;4987922;28;20173;-65
2023/12/02 08:51:39;;;;;;;140.68;51.35;;;13.30;99.50;;;;;;4988031;28;20069;-67
2023/12/02 08:54:06;;;;;;;129.00;48.72;;;13.20;99.50;;;;;;4988172;28;20552;-66
2023/12/02 08:56:33;;;;;;;134.00;47.70;;;13.20;99.30;;;;;;4989170;28;20139;-65
2023/12/02 08:58:59;;;;;;;113.93;48.42;;;13.20;99.60;;;;;;4987587;28;20126;-67
2023/12/02 09:01:27;;;;;;;137.75;50.88;;;13.20;99.70;;;;;;4988386;28;20145;-66
2023/12/02 09:03:54;;;;;;;120.18;47.63;;;13.20;99.80;;;;;;4987963;28;20559;-66
2023/12/02 09:06:20;;;;;;;107.53;45.25;;;13.10;99.50;;;;;;4987273;28;20078;-66
2023/12/02 09:08:47;;;;;;;104.18;44.13;;;13.10;99.70;;;;;;4986894;28;20093;-67
2023/12/02 09:11:13;;;;;;;112.40;43.08;;;13.10;99.70;;;;;;4987727;28;20434;-65
2023/12/02 09:13:40;;;;;;;119.00;42.72;;;13.10;99.90;;;;;;4988589;28;20066;-66
2023/12/02 09:16:24;;;;;;;;;;;13.10;99.90;;;;;;4988244;28;20078;-66
2023/12/02 09:18:51;;;;;;;92.00;37.88;;;13.10;99.90;;;;;;4986214;28;19983;-66
2023/12/02 09:21:41;;;;;;;114.45;41.40;;;13.10;99.90;;;;;;4988847;28;20104;-65
2023/12/02 09:24:38;;;;;;;92.60;38.33;;;13.00;99.80;;;;;;4988691;28;20446;-67
2023/12/02 09:27:06;;;;;;;89.20;34.90;;;12.90;99.90;;;;;;4986387;28;20080;-67
2023/12/02 09:29:43;;;;;;;85.07;32.33;;;12.90;99.60;;;;;;4991014;28;20151;-62
2023/12/02 09:32:27;;;;;;;91.63;33.67;;;12.90;99.70;;;;;;4990130;28;20069;-66
2023/12/02 09:35:00;;;;;;;96.97;36.83;;;12.90;99.60;;;;;;4992426;28;20074;-65
2023/12/02 09:37:49;;;;;;;96.35;34.25;;;12.90;99.70;;;;;;4990863;28;20220;-65
2023/12/02 09:40:21;;;;;;;82.55;33.75;;;12.90;99.90;;;;;;4991639;28;20159;-66
2023/12/02 09:43:08;;;;;;;92.80;35.50;;;12.90;99.90;;;;;;5002813;28;20081;-66
2023/12/02 09:45:45;;;;;;;90.50;34.30;;;12.90;99.90;;;;;;4989561;28;20531;-65
2023/12/02 09:48:16;;;;;;;;;;;12.80;99.90;;;;;;4992698;28;20091;-65
2023/12/02 09:50:56;;;;;;;78.82;30.98;;;12.80;99.90;;;;;;4991550;28;19965;-64
2023/12/02 09:53:46;;;;;;;72.28;28.75;;;12.80;99.80;;;;;;4990662;28;20123;-67
2023/12/02 09:56:23;;;;;;;64.38;27.98;;;12.80;99.90;;;;;;4990610;28;20090;-65
2023/12/02 09:58:56;;;;;;;65.78;27.65;;;12.70;99.90;;;;;;4992627;28;20102;-66
2023/12/02 10:01:42;;;;;;;67.93;26.52;;;12.70;99.90;;;;;;4990175;28;20072;-65
2023/12/02 10:04:49;;;;;;;65.45;28.55;;;12.70;99.90;;;;;;4992072;28;20093;-67
2023/12/02 10:07:25;;;;;;;81.53;34.65;;;12.60;99.90;;;;;;4990191;28;20157;-66
2023/12/02 10:10:03;;;;;;;86.38;34.42;;;12.50;99.90;;;;;;4991523;28;20094;-63
2023/12/02 10:13:20;;;;;;;75.45;32.22;;;12.60;99.90;;;;;;4989974;28;20674;-64
2023/12/02 10:15:49;;;;;;;73.95;31.30;;;12.50;99.90;;;;;;4974901;28;20087;-66
2023/12/02 10:18:20;;;;;;;84.22;31.77;;;12.50;99.90;;;;;;4987869;28;20195;-65
2023/12/02 10:20:56;;;;;;;70.03;30.15;;;12.50;99.90;;;;;;4985027;28;20105;-66
2023/12/02 10:23:44;;;;;;;71.70;30.97;;;12.40;99.90;;;;;;4960989;28;20621;-64
2023/12/02 10:26:28;;;;;;;77.38;30.40;;;12.40;99.90;;;;;;4986955;28;20172;-67
2023/12/02 10:29:21;;;;;;;73.30;29.23;;;12.30;99.90;;;;;;4967067;28;20097;-65
2023/12/02 10:32:28;;;;;;;74.47;30.35;;;12.40;99.90;;;;;;4971699;28;20077;-65
2023/12/02 10:35:17;;;;;;;63.47;30.08;;;12.30;99.90;;;;;;4983964;28;20090;-65
2023/12/02 10:37:46;;;;;;;69.35;29.10;;;12.30;99.90;;;;;;4987954;28;20539;-66
2023/12/02 10:40:17;;;;;;;69.32;29.30;;;12.30;99.90;;;;;;4987146;28;20096;-64
2023/12/02 10:42:59;;;;;;;79.18;32.58;;;12.30;99.90;;;;;;4987297;28;20157;-65
2023/12/02 10:45:28;;;;;;;100.93;42.08;;;12.20;99.90;;;;;;4984040;28;20086;-63
2023/12/02 10:47:58;;;;;;;117.70;50.80;;;12.10;99.90;;;;;;4986892;28;20197;-65
2023/12/02 10:50:25;;;;;;;112.50;51.30;;;12.20;99.90;;;;;;4983617;28;20070;-65
2023/12/02 10:52:57;;;;;;;105.45;47.70;;;12.20;99.90;;;;;;4988167;28;20094;-65
2023/12/02 10:55:26;;;;;;;98.38;42.55;;;12.20;99.90;;;;;;4988934;28;20131;-66
2023/12/02 10:57:55;;;;;;;101.97;42.05;;;12.10;99.90;;;;;;4989692;28;20617;-66
2023/12/02 11:00:23;;;;;;;98.95;40.08;;;12.20;99.90;;;;;;4988664;28;20102;-63
2023/12/02 11:03:04;;;;;;;98.35;38.80;;;12.20;99.90;;;;;;4989964;28;20600;-64
2023/12/02 11:06:00;;;;;;;88.22;34.28;;;12.20;99.90;;;;;;4988528;28;20149;-66
2023/12/02 11:08:46;;;;;;;88.75;35.55;;;12.10;99.90;;;;;;4989244;28;20083;-65
2023/12/02 11:11:25;;;;;;;70.90;33.03;;;12.10;99.90;;;;;;4994912;28;20075;-65
2023/12/02 11:13:57;;;;;;;79.82;33.13;;;12.10;99.90;;;;;;4993403;28;20151;-65
2023/12/02 11:16:44;;;;;;;66.38;31.13;;;12.10;99.90;;;;;;4988634;28;20082;-67
2023/12/02 11:19:39;;;;;;;70.25;31.05;;;12.10;99.90;;;;;;4989230;28;20457;-64
2023/12/02 11:22:17;;;;;;;79.95;31.88;;;12.10;99.90;;;;;;4987868;28;20727;-65
2023/12/02 11:25:08;;;;;;;77.50;31.48;;;12.10;99.90;;;;;;4988475;28;20090;-66
2023/12/02 11:27:53;;;;;;;72.97;30.85;;;12.00;99.90;;;;;;4988703;28;20075;-66
2023/12/02 11:30:28;;;;;;;71.57;31.55;;;11.90;99.90;;;;;;4988188;28;20541;-66
2023/12/02 11:33:09;;;;;;;77.60;35.17;;;11.80;99.90;;;;;;4988938;28;20083;-66
2023/12/02 11:36:05;;;;;;;74.93;33.55;;;11.70;99.90;;;;;;4989353;28;20070;-65
2023/12/02 11:38:35;;;;;;;73.22;34.45;;;11.60;99.90;;;;;;4987548;28;20091;-66
2023/12/02 11:41:12;;;;;;;78.53;34.80;;;11.70;99.90;;;;;;4989082;28;20099;-64
2023/12/02 11:44:20;;;;;;;64.97;32.08;;;11.70;99.90;;;;;;4988159;28;20535;-65
2023/12/02 11:47:09;;;;;;;77.73;33.43;;;11.80;99.90;;;;;;4966401;28;20105;-66
2023/12/02 11:49:44;;;;;;;70.63;33.15;;;11.80;99.90;;;;;;4967828;28;20107;-65
2023/12/02 11:52:20;;;;;;;72.72;34.63;;;11.70;99.90;;;;;;4964357;28;20095;-66
2023/12/02 11:55:05;;;;;;;73.45;34.78;;;11.60;99.90;;;;;;4966800;28;20098;-65
2023/12/02 11:58:02;;;;;;;115.45;51.03;;;11.60;99.90;;;;;;4966607;28;20555;-65
2023/12/02 12:01:00;;;;;;;87.80;48.65;;;11.50;99.90;;;;;;4966053;28;20083;-67
2023/12/02 12:03:41;;;;;;;;;;;11.50;99.90;;;;;;4965552;28;20146;-66
2023/12/02 12:06:13;;;;;;;90.18;41.20;;;11.50;99.90;;;;;;4968111;28;19964;-63
2023/12/02 12:09:20;;;;;;;110.25;42.42;;;11.50;99.90;;;;;;4966283;28;20115;-62
2023/12/02 12:11:49;;;;;;;109.15;42.72;;;11.50;99.90;;;;;;4946223;28;20522;-64
2023/12/02 12:14:16;;;;;;;107.78;44.42;;;11.50;99.90;;;;;;4966464;28;20089;-64
2023/12/02 12:16:43;;;;;;;95.70;42.35;;;11.50;99.90;;;;;;4967446;28;20170;-65
2023/12/02 12:19:09;;;;;;;112.28;43.33;;;11.50;99.90;;;;;;4966355;28;20072;-65
2023/12/02 12:21:36;;;;;;;99.82;45.45;;;11.50;99.90;;;;;;4967484;28;20729;-65
2023/12/02 12:24:03;;;;;;;112.47;47.45;;;11.40;99.90;;;;;;4981333;28;20498;-65
2023/12/02 12:26:30;;;;;;;99.72;46.88;;;11.30;99.90;;;;;;4987950;28;20074;-65
2023/12/02 12:28:57;;;;;;;117.65;48.83;;;11.30;99.90;;;;;;4986654;28;20126;-65
2023/12/02 12:31:27;;;;;;;131.80;50.85;;;11.20;99.90;;;;;;4988610;28;20102;-66
2023/12/02 12:33:54;;;;;;;125.82;50.55;;;11.20;99.90;;;;;;4988676;28;20102;-65
2023/12/02 12:36:30;;;;;;;132.52;51.90;;;11.20;99.90;;;;;;4987726;28;20083;-64
2023/12/02 12:38:59;;;;;;;102.50;49.55;;;11.30;99.90;;;;;;4986585;28;20119;-63
2023/12/02 12:41:29;;;;;;;125.15;50.05;;;11.30;99.90;;;;;;4989416;28;20156;-66